Traer, Iowa
Current Conditions -  °F | °C
As of 4:35 AM on Friday 31 Oct 2014 (Local Time) from KVTI Reporting Station
Clear Clear  
Wind Chill: 21°   Ceiling: Unl
Heat Index: 33°   Visibility: 10mi
Dew Point: 15°   Wind: 20mph
Humidity: 49%   Direction: 350°N
Pressure: 30.31"   Gusts: 33mph
Location:  42.19°N, 92.47°W
Report Text: KVTI 310935Z AUTO 35017G29KT 10SM CLR 00/M09 A3031 RMK AO2 T00031093
Loading
Personal Weather Stations






























Interactive Weather Map
Tropical Storm Tracking
New forecast layout! Learn more

10-Day Weather Forecast

Advertisements
Track Severe Weather on mobile